Time;durP1;ratioP1;P1;durP2;ratioP2;P2;SDS_P1;SDS_P2;PMS_P1;PMS_P2;Temp;Humidity;BMP_temperature;BMP_pressure;BME280_temperature;BME280_humidity;BME280_pressure;Samples;Min_cycle;Max_cycle;Signal;HPM_P1;HPM_P2
2022/03/15 00:00:22;;;;;;;7.03;1.67;;;;;;;2.72;37.29;100551.88;5094328;28;20135;-77
2022/03/15 00:02:49;;;;;;;6.38;1.83;;;;;;;2.62;37.30;100550.38;5101420;28;20142;-82
2022/03/15 00:05:16;;;;;;;3.67;1.33;;;;;;;2.67;37.04;100557.88;5073663;28;20051;-81
2022/03/15 00:07:42;;;;;;;13.33;1.70;;;;;;;2.58;37.02;100561.81;5110013;28;20392;-81
2022/03/15 00:10:11;;;;;;;2.40;1.33;;;;;;;2.51;37.01;100554.50;5107438;28;20184;-75
2022/03/15 00:12:37;;;;;;;3.47;1.00;;;;;;;2.46;37.28;100561.53;5106560;28;20052;-76
2022/03/15 00:15:08;;;;;;;2.90;0.85;;;;;;;2.39;37.33;100567.75;5113175;28;20051;-74
2022/03/15 00:17:35;;;;;;;2.88;1.10;;;;;;;2.54;37.04;100559.50;5112898;28;20449;-74
2022/03/15 00:20:01;;;;;;;3.50;1.17;;;;;;;2.50;36.74;100563.63;5113298;28;20075;-74
2022/03/15 00:22:34;;;;;;;1.88;0.90;;;;;;;2.50;37.01;100569.03;5093956;28;20052;-70
2022/03/15 00:25:02;;;;;;;5.90;0.90;;;;;;;2.45;37.02;100571.53;5109323;28;20062;-71
2022/03/15 00:27:30;;;;;;;5.90;0.95;;;;;;;2.33;37.08;100578.53;5105049;28;20126;-69
2022/03/15 00:29:57;;;;;;;6.50;1.05;;;;;;;2.24;37.35;100573.28;5111824;28;20040;-71
2022/03/15 00:32:24;;;;;;;6.50;0.75;;;;;;;2.04;37.33;100557.03;5112392;28;20138;-71
2022/03/15 00:34:50;;;;;;;1.83;0.80;;;;;;;2.20;37.22;100588.22;5112367;28;20048;-71
2022/03/15 00:37:16;;;;;;;3.13;1.02;;;;;;;2.27;37.17;100580.16;5102548;28;20530;-71
2022/03/15 00:39:43;;;;;;;2.60;1.10;;;;;;;2.16;37.17;100578.88;5097930;28;20118;-71
2022/03/15 00:42:09;;;;;;;2.92;0.80;;;;;;;2.29;36.36;100588.06;5108292;28;20047;-71
2022/03/15 00:44:35;;;;;;;2.92;0.82;;;;;;;2.25;36.29;100591.13;5109157;28;20048;-71
2022/03/15 00:47:03;;;;;;;4.70;1.10;;;;;;;2.11;36.16;100584.84;5096767;28;20142;-71
2022/03/15 00:49:29;;;;;;;3.47;1.20;;;;;;;2.18;36.12;100587.59;5109441;28;20031;-71
2022/03/15 00:51:55;;;;;;;2.42;1.05;;;;;;;2.13;36.02;100593.56;5110168;28;20081;-70
2022/03/15 00:54:22;;;;;;;7.80;1.13;;;;;;;2.13;36.00;100592.75;5093055;28;20040;-71
2022/03/15 00:56:49;;;;;;;4.38;1.20;;;;;;;2.09;36.36;100595.03;5106208;28;20048;-72
2022/03/15 00:59:17;;;;;;;4.65;1.40;;;;;;;2.06;36.40;100603.50;5110593;28;20123;-74
2022/03/15 01:01:44;;;;;;;2.83;1.10;;;;;;;1.97;36.58;100608.25;5085017;28;20426;-74
2022/03/15 01:04:12;;;;;;;5.00;1.50;;;;;;;1.99;36.85;100610.72;5093714;28;20066;-74
2022/03/15 01:06:38;;;;;;;9.02;1.38;;;;;;;1.92;36.84;100604.47;5090425;28;20043;-73
2022/03/15 01:09:09;;;;;;;6.20;1.20;;;;;;;2.01;37.15;100616.75;5107030;28;20044;-74
2022/03/15 01:11:37;;;;;;;5.22;1.48;;;;;;;1.97;36.90;100616.34;5057957;28;20539;-76
2022/03/15 01:14:04;;;;;;;5.63;1.40;;;;;;;1.91;37.03;100608.19;5072681;28;20406;-73
2022/03/15 01:16:31;;;;;;;3.90;1.10;;;;;;;2.17;36.31;100612.91;5085889;28;20238;-75
2022/03/15 01:18:58;;;;;;;4.60;1.08;;;;;;;2.09;36.41;100627.41;5089880;28;20068;-76
2022/03/15 01:21:26;;;;;;;5.57;1.20;;;;;;;2.00;36.40;100625.06;5059827;28;20062;-77
2022/03/15 01:23:53;;;;;;;2.80;0.88;;;;;;;1.88;36.51;100619.38;5111334;28;20543;-76
2022/03/15 01:26:19;;;;;;;3.07;1.10;;;;;;;1.88;36.60;100630.19;5113317;28;20114;-76
2022/03/15 01:28:47;;;;;;;3.35;0.98;;;;;;;1.89;36.62;100629.13;5077140;28;20309;-77
2022/03/15 01:31:14;;;;;;;4.25;1.05;;;;;;;1.86;36.61;100624.13;5092862;28;20064;-76
2022/03/15 01:33:40;;;;;;;4.45;0.90;;;;;;;1.83;36.70;100622.66;5111133;28;20040;-76
2022/03/15 01:36:06;;;;;;;3.80;1.05;;;;;;;1.74;36.76;100624.69;5110836;28;20396;-76
2022/03/15 01:38:35;;;;;;;4.43;1.20;;;;;;;1.76;36.69;100622.63;5088385;28;20093;-76
2022/03/15 01:41:01;;;;;;;3.28;0.98;;;;;;;1.78;36.80;100634.03;5092880;28;20058;-74
2022/03/15 01:43:27;;;;;;;6.10;1.20;;;;;;;1.76;36.78;100637.94;5108796;28;20499;-75
2022/03/15 01:45:55;;;;;;;;;;;;;;;1.77;36.75;100639.63;5092871;28;20097;-75
2022/03/15 01:48:21;;;;;;;8.18;1.00;;;;;;;1.75;36.62;100636.28;5109175;28;19927;-75
2022/03/15 01:50:47;;;;;;;3.40;0.90;;;;;;;1.66;36.84;100647.22;5111731;28;20046;-76
2022/03/15 01:53:18;;;;;;;8.27;1.05;;;;;;;1.54;36.99;100649.59;5091458;28;20154;-75
2022/03/15 01:55:46;;;;;;;5.63;1.05;;;;;;;1.45;36.98;100645.38;5091491;28;20533;-75
2022/03/15 01:58:12;;;;;;;5.47;0.63;;;;;;;1.52;36.98;100657.03;5109809;28;20100;-75
2022/03/15 02:00:39;;;;;;;2.60;0.95;;;;;;;1.32;37.30;100646.06;5087086;28;20056;-76
2022/03/15 02:03:05;;;;;;;1.30;0.77;;;;;;;1.32;37.11;100647.94;5089819;28;20146;-75
2022/03/15 02:05:32;;;;;;;5.22;1.00;;;;;;;1.46;37.34;100655.13;5101948;28;20096;-76
2022/03/15 02:08:07;;;;;;;3.40;1.02;;;;;;;1.40;37.18;100669.38;5107837;28;20043;-75
2022/03/15 02:10:34;;;;;;;5.43;0.85;;;;;;;1.34;37.44;100668.31;5075815;28;20507;-75
2022/03/15 02:13:01;;;;;;;1.85;0.82;;;;;;;1.28;37.50;100658.28;5086286;28;20428;-75
2022/03/15 02:15:27;;;;;;;5.53;1.20;;;;;;;1.32;37.64;100669.50;5087786;28;20511;-76
2022/03/15 02:17:53;;;;;;;5.18;1.45;;;;;;;1.25;37.47;100667.59;5102468;28;20650;-75
2022/03/15 02:20:21;;;;;;;3.40;1.30;;;;;;;1.31;37.25;100673.22;5106237;28;21471;-75
2022/03/15 02:22:47;;;;;;;5.05;1.25;;;;;;;1.29;37.44;100668.03;5076050;28;20052;-74
2022/03/15 02:25:13;;;;;;;4.25;1.25;;;;;;;1.38;37.34;100684.91;5083698;28;20092;-75
2022/03/15 02:27:40;;;;;;;7.63;1.23;;;;;;;1.34;37.12;100684.47;5105481;28;20595;-77
2022/03/15 02:30:07;;;;;;;4.15;1.20;;;;;;;1.36;37.71;100687.81;5104656;28;20142;-76
2022/03/15 02:32:34;;;;;;;2.92;1.20;;;;;;;1.37;37.22;100684.09;5106817;28;20035;-75
2022/03/15 02:35:00;;;;;;;1.73;0.97;;;;;;;1.39;37.04;100682.03;5076246;28;20051;-76
2022/03/15 02:37:30;;;;;;;6.32;1.60;;;;;;;1.37;37.22;100689.47;5109640;28;20097;-76
2022/03/15 02:39:56;;;;;;;5.90;1.20;;;;;;;1.44;37.22;100688.69;5110633;28;20040;-76
2022/03/15 02:42:22;;;;;;;4.10;1.38;;;;;;;1.29;37.25;100688.75;5091201;28;20054;-76
2022/03/15 02:44:49;;;;;;;5.25;1.52;;;;;;;1.27;37.34;100683.56;5092239;28;20048;-76
2022/03/15 02:47:15;;;;;;;6.05;1.50;;;;;;;1.24;37.52;100687.47;5095562;28;20507;-76
2022/03/15 02:49:41;;;;;;;7.07;1.48;;;;;;;1.18;37.52;100698.19;5092215;28;20039;-78
2022/03/15 02:52:10;;;;;;;5.07;1.52;;;;;;;1.24;37.51;100690.16;5072727;28;20063;-75
2022/03/15 02:54:40;;;;;;;4.05;1.63;;;;;;;1.20;37.56;100699.66;5110197;28;20050;-77
2022/03/15 02:57:10;;;;;;;4.35;1.30;;;;;;;1.20;37.20;100709.59;5070837;28;20044;-77
2022/03/15 02:59:37;;;;;;;5.35;1.20;;;;;;;1.16;37.71;100700.22;5058056;28;20054;-78
2022/03/15 03:02:08;;;;;;;1.95;1.15;;;;;;;1.15;37.43;100702.09;5074948;28;20048;-77
2022/03/15 03:04:34;;;;;;;9.13;1.50;;;;;;;1.13;37.25;100704.97;5102053;28;20496;-75
2022/03/15 03:07:01;;;;;;;18.38;1.65;;;;;;;1.05;37.46;100691.63;5110018;28;20146;-75
2022/03/15 03:09:28;;;;;;;6.00;1.40;;;;;;;1.11;37.36;100706.19;5072293;28;20546;-76
2022/03/15 03:11:55;;;;;;;10.70;1.85;;;;;;;1.05;37.58;100710.47;5109275;28;20471;-76
2022/03/15 03:14:22;;;;;;;8.60;2.05;;;;;;;1.08;37.68;100717.31;5108050;28;20545;-74
2022/03/15 03:16:49;;;;;;;5.82;1.70;;;;;;;0.97;37.82;100719.50;5057342;28;20518;-75
2022/03/15 03:19:15;;;;;;;3.58;1.48;;;;;;;1.01;37.69;100713.72;5108388;28;20474;-75
2022/03/15 03:21:41;;;;;;;5.70;1.30;;;;;;;1.03;37.71;100717.06;5080205;28;20392;-75
2022/03/15 03:24:08;;;;;;;7.57;1.55;;;;;;;0.92;37.76;100718.41;5106238;28;20096;-75
2022/03/15 03:26:37;;;;;;;5.40;1.33;;;;;;;0.93;37.61;100717.38;5071192;28;20670;-75
2022/03/15 03:29:14;;;;;;;11.40;1.50;;;;;;;0.80;37.64;100691.94;5074383;28;20047;-75
2022/03/15 03:31:43;;;;;;;4.78;1.55;;;;;;;0.99;37.63;100720.16;5084257;28;20503;-75
2022/03/15 03:34:10;;;;;;;9.45;1.70;;;;;;;0.97;37.68;100724.03;5104825;28;20048;-76
2022/03/15 03:36:37;;;;;;;4.45;1.50;;;;;;;0.92;37.89;100726.47;5090707;28;20035;-75
2022/03/15 03:39:03;;;;;;;7.90;1.55;;;;;;;0.92;37.92;100735.38;5092391;28;20052;-75
2022/03/15 03:41:32;;;;;;;4.65;1.50;;;;;;;0.93;37.84;100744.31;5108197;28;20050;-74
2022/03/15 03:43:58;;;;;;;4.82;1.67;;;;;;;0.99;37.64;100741.69;5111053;28;20079;-75
2022/03/15 03:46:25;;;;;;;9.50;1.70;;;;;;;1.00;37.65;100753.28;5111663;28;20044;-74
2022/03/15 03:48:51;;;;;;;5.55;1.70;;;;;;;0.95;37.76;100761.97;5094962;28;20044;-74
2022/03/15 03:51:18;;;;;;;7.97;1.83;;;;;;;0.91;37.50;100752.56;5109619;28;20068;-73
2022/03/15 03:53:44;;;;;;;8.40;1.83;;;;;;;0.92;37.68;100759.63;5070468;28;20048;-75
2022/03/15 03:56:13;;;;;;;4.10;1.40;;;;;;;1.04;37.67;100760.00;5110063;28;20323;-75
2022/03/15 03:58:39;;;;;;;6.05;1.60;;;;;;;1.00;37.56;100764.06;5110581;28;20054;-76
2022/03/15 04:01:05;;;;;;;7.95;1.30;;;;;;;0.99;37.55;100768.63;5088799;28;20088;-75
2022/03/15 04:03:33;;;;;;;4.93;1.55;;;;;;;0.94;37.68;100775.59;5111387;28;20475;-75
2022/03/15 04:06:02;;;;;;;10.20;4.18;;;;;;;0.94;37.74;100780.97;5072934;28;20044;-74
2022/03/15 04:08:28;;;;;;;25.13;8.52;;;;;;;1.02;37.90;100774.66;5112322;28;20035;-75
2022/03/15 04:10:55;;;;;;;17.33;6.10;;;;;;;1.00;37.87;100785.59;5105079;28;20500;-75
2022/03/15 04:13:21;;;;;;;26.10;7.70;;;;;;;0.99;37.84;100781.25;5075945;28;20155;-76
2022/03/15 04:15:52;;;;;;;18.75;6.22;;;;;;;1.01;37.83;100773.81;5110231;28;20563;-77
2022/03/15 04:18:18;;;;;;;14.07;3.38;;;;;;;1.00;37.80;100780.22;5109268;28;20055;-76
2022/03/15 04:20:46;;;;;;;8.52;2.67;;;;;;;0.85;37.76;100769.47;5093529;28;20130;-77
2022/03/15 04:23:12;;;;;;;6.80;2.13;;;;;;;1.04;37.70;100791.47;5092317;28;20082;-78
2022/03/15 04:25:39;;;;;;;7.45;2.00;;;;;;;1.02;37.73;100788.13;5111690;28;20143;-77
2022/03/15 04:28:07;;;;;;;6.68;1.60;;;;;;;0.97;37.69;100783.28;5097257;28;20142;-77
2022/03/15 04:30:34;;;;;;;9.95;2.28;;;;;;;1.01;37.79;100779.19;5086279;28;20043;-75
2022/03/15 04:33:01;;;;;;;7.57;1.70;;;;;;;1.08;37.85;100780.13;5106618;28;20503;-75
2022/03/15 04:35:29;;;;;;;6.70;2.03;;;;;;;1.06;37.68;100775.94;5088865;28;20458;-77
2022/03/15 04:37:57;;;;;;;11.40;1.75;;;;;;;0.90;37.83;100774.31;5080463;28;20062;-75
2022/03/15 04:40:23;;;;;;;4.97;1.77;;;;;;;1.06;37.80;100792.97;5109463;28;20039;-76
2022/03/15 04:43:01;;;;;;;5.22;1.73;;;;;;;1.04;37.62;100800.41;5111914;28;20043;-76
2022/03/15 04:45:28;;;;;;;8.25;1.85;;;;;;;1.12;37.54;100791.38;5073516;28;20054;-76
2022/03/15 04:47:54;;;;;;;5.85;1.60;;;;;;;1.25;37.34;100794.25;5110572;28;20047;-76
2022/03/15 04:50:20;;;;;;;12.32;1.80;;;;;;;1.20;37.47;100793.94;5092449;28;20043;-76
2022/03/15 04:52:47;;;;;;;11.32;2.10;;;;;;;1.36;37.43;100797.44;5108865;28;20044;-75
2022/03/15 04:55:13;;;;;;;7.50;1.77;;;;;;;1.29;37.47;100794.69;5090025;28;20100;-75
2022/03/15 04:57:40;;;;;;;9.27;1.83;;;;;;;1.26;37.37;100795.91;5091395;28;20486;-75
2022/03/15 05:00:09;;;;;;;8.95;2.10;;;;;;;1.22;37.71;100794.59;5108763;28;20044;-77
2022/03/15 05:02:36;;;;;;;8.48;2.00;;;;;;;1.35;37.56;100803.88;5107310;28;20044;-76
2022/03/15 05:05:05;;;;;;;9.68;2.08;;;;;;;1.31;37.61;100807.97;5097788;28;20044;-77
2022/03/15 05:07:32;;;;;;;24.23;7.93;;;;;;;1.31;37.86;100814.19;5103803;28;20107;-77
2022/03/15 05:12:44;;;;;;;22.10;7.53;;;;;;;1.37;37.71;100810.75;5110929;28;20044;-77
2022/03/15 05:15:10;;;;;;;18.05;5.38;;;;;;;1.46;37.58;100824.09;5093347;28;20058;-76
2022/03/15 05:17:36;;;;;;;12.57;3.22;;;;;;;1.47;37.75;100829.31;5112045;28;20066;-76
2022/03/15 05:20:05;;;;;;;10.00;2.90;;;;;;;1.39;37.81;100829.41;5093639;28;20051;-76
2022/03/15 05:22:31;;;;;;;15.50;2.90;;;;;;;1.57;37.73;100839.78;5106631;28;20135;-76
2022/03/15 05:24:58;;;;;;;17.35;2.90;;;;;;;1.52;37.68;100831.44;5104905;28;20039;-76
2022/03/15 05:27:25;;;;;;;13.88;2.50;;;;;;;1.54;37.87;100832.91;5111632;28;20761;-77
2022/03/15 05:29:52;;;;;;;13.87;3.00;;;;;;;1.65;37.67;100831.59;5069994;28;20427;-74
2022/03/15 05:32:18;;;;;;;9.27;2.37;;;;;;;1.69;37.59;100834.72;5106146;28;20055;-76
2022/03/15 05:34:45;;;;;;;14.13;3.22;;;;;;;1.71;37.84;100835.38;5111021;28;20309;-76
2022/03/15 05:37:11;;;;;;;8.77;2.35;;;;;;;1.77;37.75;100836.47;5109835;28;20056;-76
2022/03/15 05:39:37;;;;;;;7.00;2.00;;;;;;;1.72;37.75;100836.22;5110847;28;20044;-77
2022/03/15 05:42:03;;;;;;;8.55;2.50;;;;;;;1.83;37.73;100838.44;5111169;28;20049;-76
2022/03/15 05:44:30;;;;;;;12.27;2.70;;;;;;;1.91;37.73;100843.69;5111500;28;20036;-75
2022/03/15 05:46:57;;;;;;;5.40;2.08;;;;;;;2.00;37.58;100847.09;5110247;28;20058;-75
2022/03/15 05:49:23;;;;;;;9.27;2.22;;;;;;;1.98;37.74;100843.75;5110864;28;20130;-76
2022/03/15 05:51:50;;;;;;;7.28;2.10;;;;;;;2.07;37.57;100850.72;5074490;28;20143;-76
2022/03/15 05:54:16;;;;;;;6.97;1.80;;;;;;;2.11;37.38;100854.69;5108171;28;20085;-76
2022/03/15 05:56:42;;;;;;;7.13;2.10;;;;;;;2.06;37.51;100840.94;5110223;28;20055;-77
2022/03/15 05:59:09;;;;;;;6.78;2.30;;;;;;;2.28;37.37;100850.91;5092323;28;20123;-77
2022/03/15 06:01:36;;;;;;;9.25;2.05;;;;;;;2.31;37.26;100850.50;5094547;28;20048;-77
2022/03/15 06:04:05;;;;;;;8.80;2.47;;;;;;;2.53;37.26;100854.00;5087230;28;20066;-76
2022/03/15 06:06:31;;;;;;;16.88;2.35;;;;;;;2.59;37.14;100857.81;5089599;28;20069;-75
2022/03/15 06:08:57;;;;;;;6.25;2.40;;;;;;;2.66;37.03;100858.66;5091434;28;20138;-76
2022/03/15 06:11:23;;;;;;;36.22;12.80;;;;;;;2.68;37.30;100856.59;5090959;28;20047;-76
2022/03/15 06:13:50;;;;;;;31.38;11.23;;;;;;;2.75;37.25;100862.06;5111413;28;20043;-76
2022/03/15 06:16:16;;;;;;;15.18;6.63;;;;;;;2.83;37.19;100859.22;5110182;28;20062;-78
2022/03/15 06:18:43;;;;;;;13.00;4.45;;;;;;;2.92;36.99;100863.41;5092608;28;20523;-77
2022/03/15 06:21:10;;;;;;;10.65;3.45;;;;;;;2.90;36.91;100856.56;5103807;28;20043;-74
2022/03/15 06:23:37;;;;;;;7.80;2.55;;;;;;;2.96;37.02;100863.88;5110481;28;20530;-74
2022/03/15 06:26:03;;;;;;;11.38;2.50;;;;;;;3.06;36.96;100863.50;5109515;28;20051;-74
2022/03/15 06:28:29;;;;;;;10.43;3.20;;;;;;;3.08;37.04;100875.78;5091258;28;20062;-75
2022/03/15 06:30:57;;;;;;;9.25;2.67;;;;;;;3.16;36.78;100869.41;5106365;28;20083;-76
2022/03/15 06:33:23;;;;;;;;;;;;;;;3.23;36.75;100872.97;5110009;28;20059;-74
2022/03/15 06:35:50;;;;;;;6.40;2.50;;;;;;;3.30;36.76;100883.00;5099477;28;19969;-75
2022/03/15 06:38:18;;;;;;;6.95;2.33;;;;;;;3.35;36.90;100880.50;5083373;28;20040;-74
2022/03/15 06:40:44;;;;;;;11.63;2.45;;;;;;;3.37;36.65;100882.00;5106241;28;20104;-74
2022/03/15 06:43:12;;;;;;;9.10;2.20;;;;;;;3.38;36.82;100880.09;5108806;28;20062;-74
2022/03/15 06:45:39;;;;;;;8.73;2.33;;;;;;;3.47;36.80;100878.06;5059502;28;20048;-75
2022/03/15 06:48:05;;;;;;;8.05;2.40;;;;;;;3.52;36.61;100875.59;5090088;28;20416;-75
2022/03/15 06:50:31;;;;;;;11.82;2.50;;;;;;;3.55;36.70;100877.91;5071783;28;20456;-74
2022/03/15 06:52:57;;;;;;;13.18;2.63;;;;;;;3.67;36.55;100872.75;5079706;28;20055;-74
2022/03/15 06:55:24;;;;;;;13.35;2.95;;;;;;;3.79;36.39;100871.13;5105042;28;20506;-74
2022/03/15 06:57:50;;;;;;;8.40;2.20;;;;;;;3.90;36.15;100872.41;5086506;28;20169;-75
2022/03/15 07:00:18;;;;;;;12.10;3.05;;;;;;;4.02;36.14;100871.81;5101227;28;20384;-74
2022/03/15 07:02:45;;;;;;;8.15;2.45;;;;;;;4.04;36.01;100870.53;5091048;28;20143;-74
2022/03/15 07:05:11;;;;;;;8.85;2.80;;;;;;;4.11;35.87;100865.16;5078290;28;20419;-74
2022/03/15 07:07:38;;;;;;;13.18;2.50;;;;;;;4.14;35.97;100872.03;5088217;28;20051;-77
2022/03/15 07:10:06;;;;;;;;;;;;;;;4.24;35.90;100872.47;5091841;28;20097;-77
2022/03/15 07:12:33;;;;;;;9.03;2.53;;;;;;;4.17;36.00;100872.47;5107022;28;19955;-76
2022/03/15 07:15:00;;;;;;;14.00;2.38;;;;;;;4.04;35.93;100848.06;5107912;28;20043;-76
2022/03/15 07:17:27;;;;;;;9.07;2.45;;;;;;;4.19;35.83;100854.13;5089956;28;20043;-78
2022/03/15 07:19:54;;;;;;;11.90;2.88;;;;;;;4.47;35.76;100879.34;5105215;28;20073;-79
2022/03/15 07:22:20;;;;;;;10.73;2.63;;;;;;;4.51;35.63;100886.00;5091397;28;20047;-78
2022/03/15 07:24:47;;;;;;;6.55;2.20;;;;;;;4.62;35.48;100871.03;5092789;28;20143;-78
2022/03/15 07:27:13;;;;;;;15.38;2.97;;;;;;;4.67;35.30;100865.81;5109075;28;20419;-79
2022/03/15 07:29:40;;;;;;;7.85;2.60;;;;;;;4.80;35.22;100875.78;5077752;28;20053;-78
2022/03/15 07:32:07;;;;;;;13.97;2.60;;;;;;;4.74;34.99;100872.03;5115559;28;20052;-78
2022/03/15 07:34:33;;;;;;;17.58;2.45;;;;;;;4.87;34.93;100873.94;5068222;28;20733;-78
2022/03/15 07:36:59;;;;;;;8.82;2.05;;;;;;;4.90;34.76;100859.94;5085398;28;20066;-78
2022/03/15 07:39:25;;;;;;;7.03;2.28;;;;;;;5.05;34.71;100872.44;5112774;28;20062;-77
2022/03/15 07:41:53;;;;;;;6.45;1.83;;;;;;;5.14;34.54;100852.16;5090098;28;20539;-77
2022/03/15 07:44:19;;;;;;;6.90;2.00;;;;;;;5.26;34.34;100860.50;5078197;28;20143;-77
2022/03/15 07:46:49;;;;;;;5.05;1.60;;;;;;;5.36;34.30;100869.00;5073310;28;20055;-78
2022/03/15 07:49:16;;;;;;;8.25;1.80;;;;;;;5.39;33.88;100871.31;5098946;28;20062;-79
2022/03/15 07:51:42;;;;;;;8.95;2.08;;;;;;;5.45;33.68;100866.06;5094413;28;20423;-77
2022/03/15 07:54:09;;;;;;;7.90;2.30;;;;;;;5.48;33.88;100871.06;5090409;28;20039;-77
2022/03/15 07:56:35;;;;;;;4.95;1.65;;;;;;;5.60;33.69;100872.06;5118374;28;20051;-78
2022/03/15 07:59:01;;;;;;;8.13;2.03;;;;;;;5.53;33.36;100846.81;5073665;28;20047;-78
2022/03/15 08:01:28;;;;;;;9.33;2.20;;;;;;;5.68;33.27;100870.97;5072097;28;20529;-79
2022/03/15 08:03:58;;;;;;;9.95;1.90;;;;;;;5.75;32.93;100863.63;5092184;28;20044;-79
2022/03/15 08:06:24;;;;;;;6.00;1.90;;;;;;;5.82;33.10;100864.44;5096036;28;20145;-77
2022/03/15 08:08:53;;;;;;;9.68;2.60;;;;;;;5.91;32.75;100865.00;5089459;28;20134;-78
2022/03/15 08:11:19;;;;;;;8.07;1.83;;;;;;;6.06;32.47;100874.78;5091712;28;20130;-78
2022/03/15 08:13:46;;;;;;;8.88;2.10;;;;;;;6.12;32.44;100868.47;5109238;28;20044;-78
2022/03/15 08:16:13;;;;;;;8.13;2.17;;;;;;;6.21;32.06;100867.16;5074223;28;20138;-78
2022/03/15 08:18:39;;;;;;;21.20;8.23;;;;;;;6.29;32.00;100862.50;5111600;28;20533;-78
2022/03/15 08:21:06;;;;;;;15.18;3.67;;;;;;;6.43;31.89;100877.63;5088762;28;20179;-77
2022/03/15 08:23:32;;;;;;;11.13;2.75;;;;;;;6.50;31.57;100875.72;5087944;28;20043;-77
2022/03/15 08:25:59;;;;;;;7.72;2.10;;;;;;;6.55;31.58;100869.59;5050182;28;20040;-78
2022/03/15 08:28:26;;;;;;;8.65;2.05;;;;;;;6.61;31.30;100879.59;5071496;28;20048;-79
2022/03/15 08:30:52;;;;;;;10.75;2.00;;;;;;;6.69;31.25;100869.50;5092505;28;20047;-78
2022/03/15 08:33:19;;;;;;;6.68;1.60;;;;;;;6.85;31.06;100871.63;5106590;28;20146;-76
2022/03/15 08:35:45;;;;;;;6.60;2.00;;;;;;;6.93;30.83;100878.66;5093412;28;20155;-82
2022/03/15 08:38:12;;;;;;;7.03;2.10;;;;;;;7.02;30.65;100866.47;5092433;28;20427;-75
2022/03/15 08:40:39;;;;;;;9.43;2.10;;;;;;;7.05;30.28;100865.19;5104671;28;20070;-70
2022/03/15 08:43:06;;;;;;;8.07;2.00;;;;;;;6.99;30.50;100863.34;5111171;28;20051;-72
2022/03/15 08:45:32;;;;;;;10.07;2.60;;;;;;;7.00;30.26;100859.56;5117706;27;20058;-70
2022/03/15 08:47:58;;;;;;;8.55;2.10;;;;;;;7.17;30.57;100873.44;5093828;28;20364;-70
2022/03/15 08:50:24;;;;;;;5.50;1.90;;;;;;;7.28;30.24;100869.13;5084438;28;20097;-71
2022/03/15 08:52:51;;;;;;;8.60;2.22;;;;;;;7.44;29.90;100871.22;5113046;28;20059;-72
2022/03/15 08:55:18;;;;;;;6.72;1.92;;;;;;;7.50;29.66;100870.34;5116127;28;20052;-70
2022/03/15 08:57:44;;;;;;;4.47;1.85;;;;;;;7.59;29.60;100867.28;5110746;28;20507;-70
2022/03/15 09:00:11;;;;;;;5.80;1.80;;;;;;;7.71;29.42;100878.22;5084025;28;20189;-70
2022/03/15 09:02:38;;;;;;;6.50;1.90;;;;;;;7.87;29.35;100874.06;5094142;28;20043;-75
2022/03/15 09:05:05;;;;;;;5.80;1.77;;;;;;;8.01;28.99;100871.97;5115788;28;20051;-72
2022/03/15 09:07:31;;;;;;;5.35;1.90;;;;;;;8.13;28.86;100869.31;5109036;28;20084;-71
2022/03/15 09:09:59;;;;;;;10.85;1.90;;;;;;;8.28;28.98;100866.13;5102887;28;20055;-69
2022/03/15 09:12:26;;;;;;;6.57;1.98;;;;;;;8.25;28.54;100847.53;5109663;28;20060;-69
2022/03/15 09:14:53;;;;;;;7.47;2.00;;;;;;;8.46;28.73;100873.41;5112226;28;20134;-69
2022/03/15 09:17:20;;;;;;;5.97;2.05;;;;;;;8.66;28.43;100873.09;5104977;28;20039;-70
2022/03/15 09:19:46;;;;;;;5.68;1.80;;;;;;;8.69;28.15;100849.97;5103373;28;20050;-71
2022/03/15 09:22:13;;;;;;;6.90;1.92;;;;;;;8.85;28.04;100873.00;5111748;28;20047;-71
2022/03/15 09:24:40;;;;;;;16.60;2.20;;;;;;;8.92;28.00;100866.34;5100035;28;20075;-71
2022/03/15 09:27:06;;;;;;;7.43;2.40;;;;;;;9.04;27.81;100857.31;5081132;28;21461;-72
2022/03/15 09:29:33;;;;;;;8.27;1.90;;;;;;;9.18;27.69;100866.91;5102022;28;20054;-72
2022/03/15 09:31:59;;;;;;;5.77;2.00;;;;;;;9.41;27.44;100872.56;5113304;27;20044;-72
2022/03/15 09:34:26;;;;;;;6.30;2.08;;;;;;;9.54;27.13;100871.50;5095449;28;20653;-72
2022/03/15 09:36:53;;;;;;;6.90;1.90;;;;;;;9.46;27.13;100851.66;5094905;28;20035;-69
2022/03/15 09:39:19;;;;;;;7.82;2.13;;;;;;;9.65;27.02;100876.91;5105049;28;20138;-72
2022/03/15 09:41:49;;;;;;;6.32;1.90;;;;;;;9.78;27.08;100872.25;5102378;28;20573;-72
2022/03/15 09:44:17;;;;;;;12.90;2.00;;;;;;;9.99;27.06;100876.19;5097953;28;20046;-71
2022/03/15 09:46:51;;;;;;;6.47;1.90;;;;;;;10.15;26.41;100868.28;5105723;28;20100;-71
2022/03/15 09:49:18;;;;;;;6.78;1.75;;;;;;;10.34;26.47;100864.25;5102603;28;20496;-71
2022/03/15 09:51:45;;;;;;;5.50;1.83;;;;;;;10.28;26.21;100862.47;5092805;28;20048;-71
2022/03/15 09:54:13;;;;;;;6.82;1.90;;;;;;;10.32;26.07;100868.28;5106063;28;20058;-72
2022/03/15 09:56:39;;;;;;;;;;;;;;;10.49;25.86;100868.34;5087866;28;20450;-72
2022/03/15 09:59:10;;;;;;;9.43;2.07;;;;;;;10.60;25.79;100869.34;5105797;28;19927;-71
2022/03/15 10:01:38;;;;;;;5.88;1.88;;;;;;;10.77;25.59;100869.31;5108553;28;20055;-70
2022/03/15 10:04:06;;;;;;;9.27;1.98;;;;;;;10.87;25.30;100868.66;5109103;28;20510;-69
2022/03/15 10:06:32;;;;;;;7.20;2.00;;;;;;;11.07;25.00;100871.69;5109938;28;20044;-71
2022/03/15 10:08:59;;;;;;;5.72;1.90;;;;;;;11.07;24.80;100866.22;5103883;28;20052;-71
2022/03/15 10:11:26;;;;;;;5.35;1.65;;;;;;;11.27;24.65;100872.22;5089734;28;20445;-72
2022/03/15 10:13:52;;;;;;;6.00;1.88;;;;;;;11.35;24.65;100863.56;5109847;28;20356;-71
2022/03/15 10:16:18;;;;;;;9.90;2.13;;;;;;;11.50;24.36;100865.69;5113789;27;20075;-73
2022/03/15 10:18:55;;;;;;;8.73;1.90;;;;;;;11.42;24.06;100866.09;5108018;28;20050;-73
2022/03/15 10:21:25;;;;;;;7.93;2.00;;;;;;;11.44;24.28;100873.00;5101197;27;20097;-72
2022/03/15 10:23:53;;;;;;;6.55;2.03;;;;;;;11.62;24.33;100860.88;5099158;28;20043;-72
2022/03/15 10:26:25;;;;;;;10.20;2.17;;;;;;;11.79;23.66;100857.25;5095828;28;20065;-69
2022/03/15 10:28:53;;;;;;;11.52;2.30;;;;;;;12.01;23.69;100850.88;5109130;28;20051;-70
2022/03/15 10:31:22;;;;;;;8.20;2.28;;;;;;;12.05;23.96;100855.63;5116192;27;20044;-73
2022/03/15 10:34:01;;;;;;;7.97;2.42;;;;;;;12.14;23.78;100858.72;5107213;28;20082;-68
2022/03/15 10:36:38;;;;;;;8.45;2.17;;;;;;;11.76;24.09;100857.75;5104363;28;20046;-69
2022/03/15 10:39:05;;;;;;;7.75;2.47;;;;;;;11.60;23.69;100854.00;5096432;28;20043;-68
2022/03/15 10:41:45;;;;;;;9.68;2.33;;;;;;;11.09;24.35;100860.50;5074426;28;20112;-67
2022/03/15 10:44:18;;;;;;;9.90;2.22;;;;;;;11.25;24.12;100861.50;5105277;28;20067;-67
2022/03/15 10:46:56;;;;;;;10.90;2.22;;;;;;;11.14;24.52;100856.97;5108696;28;20985;-68
2022/03/15 10:49:22;;;;;;;8.30;2.30;;;;;;;11.05;24.49;100857.44;5106755;28;20059;-68
2022/03/15 10:51:49;;;;;;;7.35;2.20;;;;;;;11.27;24.22;100850.31;5108050;28;20047;-67
2022/03/15 10:54:16;;;;;;;5.13;1.98;;;;;;;11.61;23.92;100850.19;5103611;28;20075;-67
2022/03/15 10:56:52;;;;;;;6.07;1.95;;;;;;;11.65;23.63;100843.09;5108243;28;20138;-68
2022/03/15 10:59:21;;;;;;;6.10;2.10;;;;;;;11.32;23.90;100847.66;5105652;28;20035;-67
2022/03/15 11:01:48;;;;;;;6.18;1.90;;;;;;;11.55;23.78;100845.72;5106583;28;20062;-66
2022/03/15 11:04:17;;;;;;;8.95;1.92;;;;;;;11.83;23.26;100847.41;5087771;28;20504;-69
2022/03/15 11:06:45;;;;;;;10.30;1.73;;;;;;;12.10;23.03;100845.78;5086718;28;20139;-68
2022/03/15 11:09:32;;;;;;;6.95;1.92;;;;;;;12.17;22.80;100849.13;5087243;28;20561;-68
2022/03/15 11:12:03;;;;;;;5.45;1.80;;;;;;;12.18;22.68;100837.13;5091021;28;20044;-68
2022/03/15 11:14:57;;;;;;;7.93;2.17;;;;;;;12.30;22.60;100842.41;5082107;28;20052;-68
2022/03/15 11:17:25;;;;;;;5.88;1.60;;;;;;;12.49;22.56;100834.63;5086452;28;20058;-68
2022/03/15 11:19:53;;;;;;;7.05;1.90;;;;;;;12.68;22.35;100836.94;5087822;28;20085;-69
2022/03/15 11:22:22;;;;;;;6.03;1.77;;;;;;;12.89;21.92;100841.47;5068537;28;20075;-72
2022/03/15 11:25:02;;;;;;;5.75;1.83;;;;;;;12.98;21.49;100832.75;5087281;28;20121;-74
2022/03/15 11:27:32;;;;;;;6.40;1.48;;;;;;;13.08;21.12;100835.53;5051092;28;20052;-72
2022/03/15 11:30:02;;;;;;;5.72;1.70;;;;;;;13.37;20.89;100837.88;5087299;28;20056;-71
2022/03/15 11:32:31;;;;;;;4.18;1.48;;;;;;;13.75;20.77;100835.00;5080997;28;20105;-71
2022/03/15 11:34:57;;;;;;;7.85;2.25;;;;;;;13.83;19.87;100817.16;5082716;28;20048;-77